Time;durP1;ratioP1;P1;durP2;ratioP2;P2;SDS_P1;SDS_P2;PMS_P1;PMS_P2;Temp;Humidity;BMP_temperature;BMP_pressure;BME280_temperature;BME280_humidity;BME280_pressure;Samples;Min_cycle;Max_cycle;Signal;HPM_P1;HPM_P2
2024/04/08 00:02:01;;;;;;;11.53;3.90;;;15.50;54.30;;;;;;5134864;27;20446;-72
2024/04/08 00:04:28;;;;;;;7.70;3.10;;;15.40;54.30;;;;;;5134891;27;20469;-70
2024/04/08 00:06:54;;;;;;;9.30;3.60;;;15.40;54.40;;;;;;5130649;27;20458;-71
2024/04/08 00:09:21;;;;;;;10.33;3.83;;;15.40;54.80;;;;;;5130671;27;20460;-70
2024/04/08 00:11:49;;;;;;;11.47;3.60;;;15.40;55.00;;;;;;5134785;27;20453;-71
2024/04/08 00:14:16;;;;;;;10.30;4.00;;;15.30;55.00;;;;;;5134735;27;20787;-71
2024/04/08 00:16:42;;;;;;;8.90;3.40;;;15.20;55.10;;;;;;5129931;27;20971;-71
2024/04/08 00:19:09;;;;;;;6.77;2.87;;;15.20;55.10;;;;;;5129852;27;20435;-71
2024/04/08 00:21:37;;;;;;;6.90;2.77;;;15.20;55.30;;;;;;5133335;27;20462;-71
2024/04/08 00:24:04;;;;;;;12.00;5.40;;;15.10;55.10;;;;;;5131343;27;20437;-72
2024/04/08 00:26:31;;;;;;;8.30;3.57;;;15.10;55.30;;;;;;5134100;27;20918;-71
2024/04/08 00:28:59;;;;;;;7.40;2.90;;;15.10;55.30;;;;;;5130689;27;20520;-71
2024/04/08 00:31:25;;;;;;;8.67;3.60;;;15.10;55.40;;;;;;5133234;27;20472;-71
2024/04/08 00:33:52;;;;;;;9.70;3.90;;;15.10;55.40;;;;;;5131984;27;20458;-71
2024/04/08 00:36:24;;;;;;;8.33;3.77;;;15.10;55.30;;;;;;5132600;27;20510;-71
2024/04/08 00:38:51;;;;;;;6.40;3.83;;;15.10;55.50;;;;;;5133175;27;20480;-71
2024/04/08 00:41:17;;;;;;;6.77;3.10;;;15.00;55.70;;;;;;5126400;27;20442;-71
2024/04/08 00:43:44;;;;;;;10.40;3.03;;;15.00;55.60;;;;;;5134186;27;20433;-70
2024/04/08 00:46:20;;;;;;;5.40;2.63;;;15.00;56.00;;;;;;5134018;27;20457;-71
2024/04/08 00:48:48;;;;;;;5.30;2.40;;;15.00;55.90;;;;;;5129961;27;20486;-71
2024/04/08 00:51:14;;;;;;;6.03;3.23;;;15.00;55.90;;;;;;5133826;27;20908;-71
2024/04/08 00:53:43;;;;;;;5.83;2.83;;;15.00;56.00;;;;;;5134056;27;20451;-70
2024/04/08 00:56:11;;;;;;;5.30;2.43;;;15.00;56.00;;;;;;5129011;27;20426;-70
2024/04/08 00:58:40;;;;;;;9.60;3.40;;;14.90;56.20;;;;;;5134094;27;20469;-71
2024/04/08 01:01:05;;;;;;;7.67;2.30;;;14.80;55.50;;;;;;5126074;28;20487;-71
2024/04/08 01:03:40;;;;;;;5.93;2.93;;;14.80;54.90;;;;;;5129410;27;20496;-71
2024/04/08 01:06:06;;;;;;;6.70;3.23;;;14.60;54.50;;;;;;5126107;28;20433;-71
2024/04/08 01:08:34;;;;;;;8.50;3.50;;;14.50;54.90;;;;;;5133979;27;20482;-71
2024/04/08 01:11:05;;;;;;;6.57;2.43;;;14.40;55.50;;;;;;5123587;27;20488;-71
2024/04/08 01:13:32;;;;;;;11.07;3.80;;;14.30;55.80;;;;;;5133908;27;20504;-71
2024/04/08 01:15:59;;;;;;;7.73;2.80;;;14.30;56.30;;;;;;5133344;27;20450;-70
2024/04/08 01:18:26;;;;;;;8.60;3.43;;;14.30;56.40;;;;;;5133527;27;20429;-71
2024/04/08 01:20:57;;;;;;;5.97;2.67;;;14.30;57.10;;;;;;5133130;27;20482;-70
2024/04/08 01:23:29;;;;;;;6.30;3.10;;;14.30;57.40;;;;;;5129537;27;20438;-71
2024/04/08 01:25:56;;;;;;;10.70;4.53;;;14.30;57.40;;;;;;5133760;27;20429;-71
2024/04/08 01:28:24;;;;;;;8.97;3.70;;;14.30;57.10;;;;;;5133388;27;20866;-71
2024/04/08 01:30:50;;;;;;;9.60;3.20;;;14.40;57.40;;;;;;5132923;27;20556;-70
2024/04/08 01:33:19;;;;;;;7.20;2.90;;;14.40;57.30;;;;;;5133463;27;20441;-71
2024/04/08 01:35:44;;;;;;;5.17;3.80;;;14.40;56.80;;;;;;5133656;27;20437;-71
2024/04/08 01:38:17;;;;;;;4.50;2.90;;;14.40;57.10;;;;;;5129359;27;20510;-71
2024/04/08 01:40:44;;;;;;;9.07;4.80;;;14.40;56.90;;;;;;5127924;27;20444;-70
2024/04/08 01:43:12;;;;;;;11.00;3.27;;;14.40;56.70;;;;;;5128939;27;20429;-71
2024/04/08 01:45:38;;;;;;;5.27;3.70;;;14.40;56.70;;;;;;5133304;27;20457;-71
2024/04/08 01:48:06;;;;;;;8.80;3.17;;;14.50;56.50;;;;;;5128682;27;20441;-71
2024/04/08 01:50:32;;;;;;;7.73;3.30;;;14.50;56.40;;;;;;5131718;27;20477;-71
2024/04/08 01:52:59;;;;;;;6.30;3.50;;;14.50;56.40;;;;;;5125566;27;20506;-71
2024/04/08 01:55:26;;;;;;;6.27;2.80;;;14.50;56.30;;;;;;5136017;27;20836;-71
2024/04/08 01:57:53;;;;;;;12.80;3.97;;;14.40;56.20;;;;;;5129487;27;20473;-71
2024/04/08 02:00:25;;;;;;;9.17;4.40;;;14.40;56.40;;;;;;5124336;27;20474;-70
2024/04/08 02:02:53;;;;;;;7.10;3.40;;;14.40;56.40;;;;;;5129926;27;20531;-71
2024/04/08 02:05:19;;;;;;;7.80;3.33;;;14.30;56.50;;;;;;5132945;27;20497;-70
2024/04/08 02:07:46;;;;;;;7.73;3.40;;;14.30;56.60;;;;;;5133439;27;20446;-71
2024/04/08 02:10:12;;;;;;;6.80;3.00;;;14.30;56.80;;;;;;5123443;27;20563;-71
2024/04/08 02:12:39;;;;;;;13.13;4.17;;;14.40;57.10;;;;;;5130002;27;21098;-71
2024/04/08 02:15:06;;;;;;;6.53;3.37;;;14.40;57.10;;;;;;5127350;27;20527;-71
2024/04/08 02:17:37;;;;;;;15.63;4.43;;;14.40;56.80;;;;;;5133308;27;20437;-71
2024/04/08 02:20:04;;;;;;;11.33;3.67;;;14.50;57.00;;;;;;5128163;27;20495;-72
2024/04/08 02:22:32;;;;;;;8.50;2.50;;;14.50;56.40;;;;;;5132228;27;20447;-71
2024/04/08 02:24:58;;;;;;;6.40;3.83;;;14.40;56.10;;;;;;5131791;27;20482;-71
2024/04/08 02:27:29;;;;;;;8.03;3.30;;;14.40;55.90;;;;;;5125038;27;20438;-70
2024/04/08 02:29:57;;;;;;;10.60;4.20;;;14.40;56.10;;;;;;5121843;27;20487;-72
2024/04/08 02:32:24;;;;;;;6.80;4.10;;;14.30;56.20;;;;;;5132384;27;20438;-71
2024/04/08 02:34:51;;;;;;;7.57;3.27;;;14.30;56.30;;;;;;5116590;27;20864;-70
2024/04/08 02:37:18;;;;;;;5.20;2.90;;;14.30;56.30;;;;;;5132845;27;20459;-71
2024/04/08 02:39:46;;;;;;;14.80;4.47;;;14.30;56.50;;;;;;5126757;27;20760;-71
2024/04/08 02:42:13;;;;;;;7.53;3.50;;;14.40;56.70;;;;;;5128497;27;20454;-70
2024/04/08 02:44:40;;;;;;;9.83;3.30;;;14.40;56.60;;;;;;5129573;27;20434;-71
2024/04/08 02:47:07;;;;;;;14.50;3.87;;;14.30;56.90;;;;;;5129707;27;20443;-71
2024/04/08 02:49:37;;;;;;;5.77;4.13;;;14.30;56.40;;;;;;5125250;27;20509;-70
2024/04/08 02:52:20;;;;;;;9.70;3.07;;;14.30;56.10;;;;;;5126307;27;20472;-71
2024/04/08 02:54:52;;;;;;;16.10;4.60;;;14.30;56.30;;;;;;5126024;27;20438;-71
2024/04/08 02:57:19;;;;;;;7.63;2.93;;;14.30;56.10;;;;;;5127400;27;20477;-71
2024/04/08 02:59:48;;;;;;;8.47;3.20;;;14.30;56.60;;;;;;5128461;27;20430;-71
2024/04/08 03:02:17;;;;;;;4.70;2.70;;;14.30;56.90;;;;;;5131550;27;20922;-71
2024/04/08 03:04:46;;;;;;;8.70;3.70;;;14.30;57.20;;;;;;5127165;27;20942;-71
2024/04/08 03:07:13;;;;;;;5.83;3.33;;;14.30;57.30;;;;;;5125626;27;20498;-71
2024/04/08 03:09:40;;;;;;;5.60;2.37;;;14.30;57.20;;;;;;5122744;27;20491;-71
2024/04/08 03:12:12;;;;;;;4.57;2.50;;;14.30;57.40;;;;;;5131653;27;20860;-71
2024/04/08 03:14:38;;;;;;;7.53;3.63;;;14.30;57.60;;;;;;5126998;27;20464;-71
2024/04/08 03:17:06;;;;;;;7.93;3.30;;;14.30;57.60;;;;;;5127317;27;20461;-70
2024/04/08 03:19:36;;;;;;;7.93;2.40;;;14.20;57.40;;;;;;5127046;27;20479;-71
2024/04/08 03:22:04;;;;;;;6.00;2.80;;;14.20;56.90;;;;;;5128556;27;20520;-71
2024/04/08 03:24:30;;;;;;;6.13;2.50;;;14.10;56.70;;;;;;5129150;27;20521;-71
2024/04/08 03:26:58;;;;;;;5.33;2.53;;;14.00;56.90;;;;;;5128115;27;20445;-71
2024/04/08 03:29:24;;;;;;;12.33;3.80;;;14.00;57.00;;;;;;5125498;27;20482;-71
2024/04/08 03:31:52;;;;;;;8.13;2.47;;;13.90;57.40;;;;;;5125549;27;20527;-71
2024/04/08 03:34:18;;;;;;;6.57;2.23;;;13.90;57.60;;;;;;5131013;27;20457;-71
2024/04/08 03:36:45;;;;;;;6.10;3.40;;;13.90;57.80;;;;;;5125352;27;20514;-71
2024/04/08 03:39:13;;;;;;;5.93;4.00;;;13.90;57.90;;;;;;5117895;27;20441;-71
2024/04/08 03:41:44;;;;;;;7.87;3.67;;;13.90;58.00;;;;;;5130138;27;20425;-70
2024/04/08 03:44:13;;;;;;;14.43;3.40;;;13.90;58.20;;;;;;5129645;27;20992;-72
2024/04/08 03:46:40;;;;;;;6.03;2.50;;;14.00;58.10;;;;;;5131475;27;20461;-71
2024/04/08 03:49:06;;;;;;;10.73;3.80;;;14.00;58.10;;;;;;5125811;27;20812;-71
2024/04/08 03:51:33;;;;;;;8.53;3.50;;;14.00;58.20;;;;;;5125425;27;20471;-71
2024/04/08 03:53:59;;;;;;;12.30;3.83;;;14.10;58.30;;;;;;5133619;27;20907;-71
2024/04/08 03:56:26;;;;;;;6.97;3.00;;;14.10;58.40;;;;;;5134751;27;20452;-70
2024/04/08 03:58:52;;;;;;;9.07;3.00;;;14.10;58.20;;;;;;5134232;27;20436;-71
2024/04/08 04:01:21;;;;;;;7.57;2.77;;;14.10;58.00;;;;;;5130720;27;20445;-70
2024/04/08 04:03:48;;;;;;;8.63;2.97;;;14.10;58.20;;;;;;5134063;27;20794;-71
2024/04/08 04:06:15;;;;;;;10.10;3.57;;;14.10;58.50;;;;;;5128929;27;20452;-70
2024/04/08 04:08:41;;;;;;;10.07;2.80;;;14.00;58.40;;;;;;5130801;27;20437;-71
2024/04/08 04:11:13;;;;;;;8.30;3.40;;;14.00;58.80;;;;;;5126156;27;20488;-71
2024/04/08 04:13:39;;;;;;;12.23;3.80;;;14.00;58.70;;;;;;5126001;27;20428;-71
2024/04/08 04:16:07;;;;;;;7.43;3.77;;;14.00;58.90;;;;;;5131225;27;20494;-71
2024/04/08 04:18:34;;;;;;;8.10;3.00;;;14.00;59.20;;;;;;5123372;27;20480;-70
2024/04/08 04:21:01;;;;;;;4.40;2.10;;;13.90;58.70;;;;;;5122709;27;20453;-71
2024/04/08 04:23:27;;;;;;;4.83;2.30;;;13.90;58.40;;;;;;5131625;27;20469;-70
2024/04/08 04:25:59;;;;;;;11.00;3.03;;;13.80;58.40;;;;;;5127922;27;20470;-70
2024/04/08 04:28:25;;;;;;;9.67;3.10;;;13.80;58.90;;;;;;5130943;27;20520;-71
2024/04/08 04:30:54;;;;;;;8.20;2.97;;;13.80;58.60;;;;;;5128695;27;20480;-70
2024/04/08 04:33:19;;;;;;;8.10;2.83;;;13.70;58.80;;;;;;5128825;27;20426;-71
2024/04/08 04:35:54;;;;;;;6.30;3.30;;;13.70;59.00;;;;;;5131247;27;20915;-71
2024/04/08 04:38:20;;;;;;;8.43;2.40;;;13.70;59.10;;;;;;5128439;27;20758;-70
2024/04/08 04:40:47;;;;;;;8.70;3.43;;;13.60;59.10;;;;;;5115951;27;20445;-71
2024/04/08 04:43:13;;;;;;;11.07;5.77;;;13.60;59.40;;;;;;5124290;27;20465;-70
2024/04/08 04:45:40;;;;;;;13.57;5.77;;;13.70;59.50;;;;;;5133962;27;20461;-71
2024/04/08 04:48:07;;;;;;;10.37;5.40;;;13.70;59.40;;;;;;5133516;27;20973;-71
2024/04/08 04:50:34;;;;;;;8.00;3.97;;;13.80;59.40;;;;;;5129141;27;20867;-71
2024/04/08 04:53:01;;;;;;;14.20;5.50;;;13.80;59.40;;;;;;5133524;27;20474;-71
2024/04/08 04:55:28;;;;;;;13.53;6.77;;;13.80;59.40;;;;;;5133636;27;20482;-70
2024/04/08 04:57:54;;;;;;;9.13;4.30;;;13.90;58.90;;;;;;5133166;27;20493;-70
2024/04/08 05:00:25;;;;;;;8.43;3.90;;;14.00;58.10;;;;;;5128447;27;20464;-71
2024/04/08 05:02:51;;;;;;;7.43;4.50;;;13.90;57.80;;;;;;5126563;28;20504;-70
2024/04/08 05:05:18;;;;;;;6.57;3.80;;;13.90;57.70;;;;;;5129480;27;20433;-71
2024/04/08 05:07:44;;;;;;;8.07;4.47;;;13.90;57.80;;;;;;5129355;27;20456;-71
2024/04/08 05:10:12;;;;;;;8.33;4.47;;;13.90;57.90;;;;;;5128250;27;20438;-71
2024/04/08 05:12:38;;;;;;;13.57;4.30;;;13.90;58.00;;;;;;5132980;27;21035;-70
2024/04/08 05:15:06;;;;;;;5.97;4.13;;;14.00;58.30;;;;;;5132081;27;20944;-70
2024/04/08 05:17:32;;;;;;;10.97;5.00;;;14.00;58.70;;;;;;5137553;27;20441;-70
2024/04/08 05:20:01;;;;;;;9.50;4.03;;;14.00;58.60;;;;;;5138649;27;20515;-71
2024/04/08 05:22:28;;;;;;;12.30;4.07;;;14.00;58.70;;;;;;5138573;27;20457;-71
2024/04/08 05:24:55;;;;;;;6.60;3.27;;;14.00;58.80;;;;;;5138568;27;20523;-71
2024/04/08 05:27:23;;;;;;;12.80;3.90;;;14.00;58.90;;;;;;5138131;27;20491;-71
2024/04/08 05:29:50;;;;;;;10.33;3.77;;;14.00;58.90;;;;;;5138352;27;20835;-71
2024/04/08 05:32:16;;;;;;;11.00;5.80;;;13.90;58.80;;;;;;5137870;27;20512;-70
2024/04/08 05:34:43;;;;;;;10.20;4.43;;;14.00;58.60;;;;;;5138261;27;20445;-71
2024/04/08 05:37:09;;;;;;;17.80;3.60;;;13.90;58.60;;;;;;5137921;27;20899;-71
2024/04/08 05:39:36;;;;;;;5.97;4.03;;;13.90;58.60;;;;;;5138155;27;20437;-71
2024/04/08 05:42:02;;;;;;;11.03;4.37;;;14.00;59.00;;;;;;5137850;27;20484;-71
2024/04/08 05:44:30;;;;;;;14.43;4.00;;;14.10;59.00;;;;;;5138225;27;20465;-71
2024/04/08 05:46:56;;;;;;;16.03;4.47;;;14.20;57.70;;;;;;5138179;27;20433;-71
2024/04/08 05:49:23;;;;;;;16.30;3.73;;;14.20;57.10;;;;;;5137981;27;20529;-71
2024/04/08 05:51:49;;;;;;;10.37;4.00;;;14.20;57.10;;;;;;5137534;27;20560;-71
2024/04/08 05:54:16;;;;;;;14.80;5.50;;;14.30;56.50;;;;;;5137928;27;20516;-71
2024/04/08 05:56:42;;;;;;;13.20;4.50;;;14.30;56.10;;;;;;5137288;27;20521;-71
2024/04/08 05:59:09;;;;;;;18.87;6.33;;;14.40;55.50;;;;;;5137852;27;20482;-71
2024/04/08 06:01:36;;;;;;;16.40;4.80;;;14.40;55.10;;;;;;5137416;27;20460;-71
2024/04/08 06:04:03;;;;;;;12.23;4.80;;;14.50;55.80;;;;;;5137802;27;20490;-71
2024/04/08 06:06:29;;;;;;;19.83;4.73;;;14.60;53.60;;;;;;5137730;27;20432;-71
2024/04/08 06:09:04;;;;;;;12.90;3.33;;;14.60;53.60;;;;;;5137718;27;20489;-71
2024/04/08 06:11:30;;;;;;;8.87;3.70;;;14.70;55.40;;;;;;5137748;27;20461;-70
2024/04/08 06:13:57;;;;;;;17.13;7.83;;;14.80;53.90;;;;;;5137267;27;20972;-71
2024/04/08 06:16:23;;;;;;;15.87;5.50;;;14.90;54.80;;;;;;5137655;27;20465;-71
2024/04/08 06:18:51;;;;;;;15.63;5.13;;;15.10;54.80;;;;;;5137533;27;20828;-71
2024/04/08 06:21:17;;;;;;;23.53;4.80;;;15.20;54.00;;;;;;5137084;27;20597;-71
2024/04/08 06:23:44;;;;;;;9.37;4.07;;;15.40;54.40;;;;;;5137042;27;20437;-71
2024/04/08 06:26:10;;;;;;;15.40;4.87;;;15.60;54.50;;;;;;5136647;27;20520;-71
2024/04/08 06:28:37;;;;;;;14.47;4.43;;;15.80;55.40;;;;;;5137002;27;20443;-71
2024/04/08 06:31:03;;;;;;;10.50;3.87;;;16.00;56.10;;;;;;5136835;27;20564;-71
2024/04/08 06:33:32;;;;;;;15.77;4.80;;;16.20;57.50;;;;;;5137302;27;20516;-71
2024/04/08 06:35:59;;;;;;;11.87;3.77;;;16.50;58.10;;;;;;5137124;27;20790;-71
2024/04/08 06:38:26;;;;;;;13.20;3.33;;;16.70;57.30;;;;;;5136814;27;20497;-71
2024/04/08 06:40:53;;;;;;;10.97;4.10;;;16.90;55.60;;;;;;5136721;27;20473;-71
2024/04/08 06:43:20;;;;;;;13.67;4.10;;;17.00;56.50;;;;;;5137260;27;20470;-71
2024/04/08 06:45:54;;;;;;;11.23;3.80;;;17.10;56.90;;;;;;5136494;27;20921;-71
2024/04/08 06:48:21;;;;;;;15.40;4.47;;;17.30;56.20;;;;;;5136585;27;20891;-71
2024/04/08 06:50:47;;;;;;;17.93;4.40;;;17.50;56.00;;;;;;5136402;27;20435;-71
2024/04/08 06:53:16;;;;;;;20.63;3.97;;;17.70;56.00;;;;;;5136482;27;20436;-71
2024/04/08 06:55:42;;;;;;;11.63;3.70;;;17.80;53.40;;;;;;5136801;27;20480;-71
2024/04/08 06:58:11;;;;;;;12.50;5.80;;;18.00;54.40;;;;;;5136692;27;20488;-71
2024/04/08 07:00:37;;;;;;;12.77;5.17;;;18.10;53.90;;;;;;5136719;27;20434;-71
2024/04/08 07:03:05;;;;;;;13.03;4.60;;;18.30;53.20;;;;;;5136328;27;20985;-71
2024/04/08 07:05:31;;;;;;;9.70;3.73;;;18.40;53.50;;;;;;5136511;27;20435;-71
2024/04/08 07:07:58;;;;;;;11.80;4.30;;;18.60;51.80;;;;;;5136615;27;20445;-71
2024/04/08 07:10:25;;;;;;;14.13;3.80;;;18.80;51.20;;;;;;5136439;27;20478;-71
2024/04/08 07:12:52;;;;;;;16.67;5.13;;;18.90;51.50;;;;;;5136399;27;20471;-71
2024/04/08 07:15:19;;;;;;;19.23;4.07;;;18.90;52.70;;;;;;5136055;27;20464;-71
2024/04/08 07:17:46;;;;;;;19.30;4.20;;;19.00;52.30;;;;;;5136336;27;20474;-71
2024/04/08 07:20:12;;;;;;;15.97;4.70;;;19.10;52.90;;;;;;5135847;27;20464;-71
2024/04/08 07:22:39;;;;;;;14.17;4.07;;;19.10;53.00;;;;;;5136242;27;20519;-71
2024/04/08 07:25:05;;;;;;;18.33;5.10;;;19.30;51.10;;;;;;5136196;27;20471;-71
2024/04/08 07:27:35;;;;;;;16.67;4.97;;;19.40;47.80;;;;;;5136126;27;20433;-71
2024/04/08 07:30:01;;;;;;;21.60;5.87;;;19.60;48.20;;;;;;5136065;27;20439;-73
2024/04/08 07:32:29;;;;;;;18.03;4.63;;;19.70;44.40;;;;;;5136024;27;20496;-71
2024/04/08 07:34:55;;;;;;;22.63;5.10;;;19.90;45.50;;;;;;5135732;27;20519;-71
2024/04/08 07:37:22;;;;;;;21.90;4.60;;;19.90;44.40;;;;;;5134750;27;20529;-71
2024/04/08 07:39:48;;;;;;;24.20;4.60;;;20.00;45.20;;;;;;5135928;27;20461;-71
2024/04/08 07:42:15;;;;;;;22.37;4.70;;;20.10;45.30;;;;;;5135928;27;20498;-71
2024/04/08 07:44:43;;;;;;;18.93;4.90;;;20.20;45.90;;;;;;5135467;27;20925;-71
2024/04/08 07:47:10;;;;;;;18.00;5.60;;;20.30;45.00;;;;;;5135697;27;20437;-71
2024/04/08 07:49:36;;;;;;;17.90;3.63;;;20.30;43.40;;;;;;5135356;27;20493;-71
2024/04/08 07:52:03;;;;;;;18.43;4.20;;;20.40;41.90;;;;;;5135542;27;20461;-71
2024/04/08 07:54:29;;;;;;;18.37;4.47;;;20.40;41.50;;;;;;5135295;27;20433;-72
2024/04/08 07:56:56;;;;;;;25.13;5.07;;;20.40;39.50;;;;;;5135259;27;20517;-71
2024/04/08 07:59:22;;;;;;;24.73;5.13;;;20.40;38.40;;;;;;5135637;27;20478;-71
2024/04/08 08:01:51;;;;;;;19.40;5.03;;;20.50;38.60;;;;;;5135176;27;20437;-71
2024/04/08 08:04:18;;;;;;;23.00;5.47;;;20.50;40.00;;;;;;5135469;27;20510;-71
2024/04/08 08:06:45;;;;;;;24.60;6.03;;;20.90;41.60;;;;;;5135397;27;20505;-71
2024/04/08 08:09:12;;;;;;;32.30;5.77;;;21.50;42.80;;;;;;5135015;27;20437;-71
2024/04/08 08:11:39;;;;;;;15.37;4.90;;;22.10;44.00;;;;;;5134899;27;20502;-71
2024/04/08 08:14:06;;;;;;;20.67;3.83;;;22.80;44.00;;;;;;5135239;27;20429;-71
2024/04/08 08:16:33;;;;;;;17.10;4.07;;;23.70;42.80;;;;;;5135239;27;20426;-72
2024/04/08 08:19:01;;;;;;;17.10;5.57;;;24.50;42.80;;;;;;5134855;27;20477;-71
2024/04/08 08:21:30;;;;;;;21.57;5.30;;;25.10;39.50;;;;;;5135147;27;20473;-71
2024/04/08 08:23:57;;;;;;;17.57;5.00;;;25.50;37.50;;;;;;5134791;27;20463;-71
2024/04/08 08:26:28;;;;;;;35.97;6.50;;;25.90;33.90;;;;;;5135007;27;20524;-71
2024/04/08 08:28:55;;;;;;;31.70;7.30;;;26.30;32.20;;;;;;5135057;27;20775;-71
2024/04/08 08:31:22;;;;;;;30.50;8.17;;;26.80;29.60;;;;;;5134860;27;20465;-71
2024/04/08 08:33:49;;;;;;;24.13;6.57;;;27.40;32.20;;;;;;5134965;27;20482;-72
2024/04/08 08:36:16;;;;;;;28.93;6.80;;;28.10;31.10;;;;;;5134974;27;20508;-72
2024/04/08 08:38:43;;;;;;;24.50;6.60;;;28.80;28.90;;;;;;5134923;27;20573;-72
2024/04/08 08:41:11;;;;;;;20.33;5.57;;;29.40;27.70;;;;;;5134543;27;20469;-72
2024/04/08 08:43:38;;;;;;;25.10;6.40;;;29.90;28.80;;;;;;5134426;27;20938;-72
2024/04/08 08:46:04;;;;;;;21.63;5.53;;;30.40;25.30;;;;;;5134450;27;20479;-72
2024/04/08 08:48:31;;;;;;;31.97;5.93;;;30.90;24.50;;;;;;5134125;27;20445;-72
2024/04/08 08:50:58;;;;;;;28.87;8.10;;;31.20;23.90;;;;;;5134371;27;20472;-72
2024/04/08 08:53:26;;;;;;;31.73;8.00;;;31.60;24.60;;;;;;5134229;27;20517;-73
2024/04/08 08:55:57;;;;;;;42.67;7.70;;;32.00;23.30;;;;;;5134630;27;20464;-71
2024/04/08 08:58:25;;;;;;;32.03;6.40;;;32.30;21.90;;;;;;5134980;27;20990;-72
2024/04/08 09:02:15;;;;;;;29.63;7.80;;;32.50;21.40;;;;;;5508731;25;20926;-70
2024/04/08 09:04:41;;;;;;;34.67;7.00;;;32.60;20.60;;;;;;5508935;26;20564;-70
2024/04/08 09:07:11;;;;;;;31.13;7.43;;;32.40;19.70;;;;;;5508765;26;20857;-71
2024/04/08 09:09:38;;;;;;;28.40;6.83;;;32.20;19.30;;;;;;5508846;26;20933;-70
2024/04/08 09:12:12;;;;;;;36.13;8.33;;;32.20;19.60;;;;;;5508734;26;20490;-70
2024/04/08 09:14:38;;;;;;;36.70;7.70;;;32.30;19.40;;;;;;5508988;26;20502;-70
2024/04/08 09:17:08;;;;;;;50.20;7.73;;;32.60;19.20;;;;;;5508921;26;20454;-70
2024/04/08 09:19:37;;;;;;;31.90;6.57;;;32.80;20.10;;;;;;5508663;26;20594;-70
2024/04/08 09:22:09;;;;;;;31.20;6.73;;;33.10;19.00;;;;;;5508745;26;20446;-70
2024/04/08 09:24:35;;;;;;;30.13;7.20;;;33.40;18.90;;;;;;5508843;26;21020;-71
2024/04/08 09:27:04;;;;;;;26.17;8.13;;;33.70;18.30;;;;;;5508464;26;20506;-70
2024/04/08 09:29:30;;;;;;;44.07;9.10;;;34.00;17.90;;;;;;5508435;26;20443;-70
2024/04/08 09:32:00;;;;;;;27.10;7.33;;;34.30;16.70;;;;;;5508467;26;21020;-70
2024/04/08 09:34:27;;;;;;;31.90;8.50;;;34.50;16.40;;;;;;5508742;26;20450;-71
2024/04/08 09:36:59;;;;;;;40.30;7.57;;;34.70;16.10;;;;;;5508704;26;20520;-72
2024/04/08 09:39:26;;;;;;;42.10;8.37;;;34.90;16.60;;;;;;5508468;26;20455;-70
2024/04/08 09:41:57;;;;;;;26.57;7.73;;;35.10;17.50;;;;;;5508509;26;20564;-71
2024/04/08 09:44:24;;;;;;;36.47;8.50;;;35.30;15.00;;;;;;5508294;26;20879;-71
2024/04/08 09:46:54;;;;;;;51.70;11.17;;;35.50;15.80;;;;;;5508191;26;20498;-71
2024/04/08 09:49:23;;;;;;;35.20;7.47;;;35.60;16.20;;;;;;5508124;26;20547;-70
2024/04/08 09:51:52;;;;;;;41.00;8.63;;;35.50;16.60;;;;;;5508183;26;20450;-70
2024/04/08 09:54:23;;;;;;;38.33;9.20;;;35.40;17.30;;;;;;5508008;26;20721;-70
2024/04/08 09:56:51;;;;;;;39.93;6.93;;;35.40;15.50;;;;;;5508449;26;20454;-71
2024/04/08 09:59:22;;;;;;;34.97;7.00;;;35.40;16.00;;;;;;5507955;26;20458;-71
2024/04/08 10:01:51;;;;;;;40.13;7.33;;;35.30;15.00;;;;;;5508061;26;20999;-71
2024/04/08 10:04:23;;;;;;;40.37;8.63;;;35.10;15.60;;;;;;5508029;26;20438;-71
2024/04/08 10:06:50;;;;;;;36.87;8.30;;;34.90;16.50;;;;;;5508079;26;20501;-70
2024/04/08 10:09:20;;;;;;;36.63;7.80;;;34.70;17.50;;;;;;5508205;26;20439;-70
2024/04/08 10:11:51;;;;;;;26.30;7.80;;;34.50;17.00;;;;;;5502395;26;20451;-71
2024/04/08 10:14:20;;;;;;;45.07;8.80;;;34.20;16.30;;;;;;5492383;26;20572;-71
2024/04/08 10:16:48;;;;;;;30.13;8.23;;;33.80;16.30;;;;;;5491998;26;20565;-70
2024/04/08 10:19:17;;;;;;;25.53;6.63;;;33.40;16.30;;;;;;5492276;26;20451;-70
2024/04/08 10:21:45;;;;;;;34.83;7.27;;;33.10;16.80;;;;;;5491945;26;20447;-70
2024/04/08 10:24:30;;;;;;;43.97;7.40;;;32.90;17.50;;;;;;5491963;26;20511;-70
2024/04/08 10:27:07;;;;;;;27.77;6.43;;;32.80;18.50;;;;;;5492018;26;20451;-70
2024/04/08 10:29:37;;;;;;;33.90;7.50;;;33.00;18.30;;;;;;5491886;26;20788;-71
2024/04/08 10:32:03;;;;;;;25.77;6.97;;;33.10;18.00;;;;;;5491892;26;20822;-70
2024/04/08 10:34:32;;;;;;;29.43;6.80;;;33.30;17.40;;;;;;5491759;26;21040;-71
2024/04/08 10:36:58;;;;;;;36.43;6.80;;;33.40;17.70;;;;;;5491815;26;20455;-70
2024/04/08 10:39:29;;;;;;;30.80;6.83;;;33.70;18.90;;;;;;5491714;26;20494;-71
2024/04/08 10:41:57;;;;;;;30.17;7.80;;;34.00;18.90;;;;;;5492017;26;20459;-71
2024/04/08 10:44:31;;;;;;;27.40;6.40;;;34.30;18.60;;;;;;5491641;26;20549;-70
2024/04/08 10:46:57;;;;;;;38.50;7.20;;;34.60;17.80;;;;;;5491744;26;20788;-70
2024/04/08 10:49:26;;;;;;;35.50;6.50;;;34.70;18.00;;;;;;5491745;26;20451;-70
2024/04/08 10:51:52;;;;;;;35.63;7.30;;;34.90;18.00;;;;;;5491537;26;20503;-70
2024/04/08 10:54:21;;;;;;;34.53;8.03;;;35.10;17.90;;;;;;5491549;26;20561;-70
2024/04/08 10:56:47;;;;;;;30.43;7.30;;;35.30;17.30;;;;;;5491566;26;20503;-70
2024/04/08 10:59:15;;;;;;;27.23;7.80;;;35.40;17.70;;;;;;5492937;26;20833;-70
2024/04/08 11:01:44;;;;;;;28.57;7.30;;;35.60;17.80;;;;;;5490288;26;20988;-70
2024/04/08 11:04:14;;;;;;;31.43;7.13;;;35.70;17.70;;;;;;5490274;26;20468;-70
2024/04/08 11:06:40;;;;;;;25.10;6.47;;;35.80;18.30;;;;;;5490043;26;20459;-71
2024/04/08 11:09:08;;;;;;;32.20;6.33;;;36.00;18.10;;;;;;5489931;26;20585;-71
2024/04/08 11:11:34;;;;;;;24.50;5.17;;;36.00;17.60;;;;;;5490496;26;20530;-70
2024/04/08 11:14:03;;;;;;;31.57;5.07;;;36.20;16.90;;;;;;5490064;26;20949;-71
2024/04/08 11:16:29;;;;;;;25.80;6.20;;;36.20;18.10;;;;;;5482997;26;20808;-70
2024/04/08 11:19:00;;;;;;;25.23;6.07;;;36.20;18.30;;;;;;5489988;26;20705;-70
2024/04/08 11:21:27;;;;;;;33.03;7.10;;;36.40;18.40;;;;;;5490108;26;20808;-70
2024/04/08 11:23:56;;;;;;;30.80;7.60;;;36.60;17.90;;;;;;5488454;26;20467;-71
2024/04/08 11:26:22;;;;;;;23.33;5.37;;;36.70;17.90;;;;;;5489652;26;20460;-70
2024/04/08 11:28:52;;;;;;;35.87;8.30;;;36.80;17.40;;;;;;5490090;26;20474;-71
2024/04/08 11:31:18;;;;;;;25.70;6.97;;;36.90;17.00;;;;;;5489700;26;21035;-70
2024/04/08 11:33:46;;;;;;;25.87;7.00;;;36.90;17.60;;;;;;5490037;26;20510;-70
2024/04/08 11:36:16;;;;;;;20.50;5.43;;;36.90;17.20;;;;;;5489988;26;20459;-71
2024/04/08 11:38:44;;;;;;;28.97;7.30;;;37.00;18.60;;;;;;5490011;26;20463;-71
2024/04/08 11:41:10;;;;;;;34.53;7.43;;;37.00;16.90;;;;;;5489677;26;20519;-70
2024/04/08 11:43:39;;;;;;;23.43;6.87;;;37.10;16.70;;;;;;5490144;26;20467;-70
2024/04/08 11:46:05;;;;;;;25.50;6.30;;;37.10;16.50;;;;;;5483473;26;20459;-70
2024/04/08 11:48:34;;;;;;;33.27;7.47;;;37.00;17.40;;;;;;5489974;26;20545;-70
2024/04/08 11:51:00;;;;;;;51.60;6.90;;;37.10;17.80;;;;;;5489321;26;20455;-70
2024/04/08 11:53:31;;;;;;;23.57;6.70;;;37.00;17.80;;;;;;5489908;26;20515;-71
2024/04/08 11:55:57;;;;;;;24.77;6.67;;;37.00;18.60;;;;;;5483264;26;20507;-70
2024/04/08 11:58:27;;;;;;;20.30;6.50;;;36.90;19.30;;;;;;5489471;26;21102;-70
2024/04/08 12:00:53;;;;;;;25.97;5.60;;;36.90;19.60;;;;;;5488872;26;20530;-70
2024/04/08 12:03:22;;;;;;;27.23;6.47;;;36.80;19.20;;;;;;5487391;26;20463;-70
2024/04/08 12:05:48;;;;;;;26.87;6.17;;;36.80;14.60;;;;;;5489343;26;20230;-70
2024/04/08 12:08:16;;;;;;;31.23;6.67;;;36.70;14.80;;;;;;5489513;26;20526;-71
2024/04/08 12:10:45;;;;;;;26.37;6.40;;;36.60;16.90;;;;;;5489032;26;20512;-70
2024/04/08 12:13:18;;;;;;;39.77;6.90;;;36.60;16.10;;;;;;5489719;26;20498;-70
2024/04/08 12:15:45;;;;;;;19.87;6.13;;;36.50;15.90;;;;;;5484105;26;20781;-70
2024/04/08 12:18:13;;;;;;;21.23;6.67;;;36.50;16.60;;;;;;5489957;26;20507;-70
2024/04/08 12:20:39;;;;;;;33.10;6.87;;;36.50;15.40;;;;;;5481905;26;20512;-70
2024/04/08 12:23:11;;;;;;;26.30;7.23;;;36.40;17.00;;;;;;5489426;26;20463;-70
2024/04/08 12:25:39;;;;;;;29.17;6.20;;;36.30;19.10;;;;;;5489093;26;20512;-70
2024/04/08 12:28:11;;;;;;;37.60;7.70;;;36.30;13.50;;;;;;5489242;26;20463;-71
2024/04/08 12:30:41;;;;;;;25.57;6.70;;;36.20;14.10;;;;;;5488835;26;20860;-70
2024/04/08 12:33:11;;;;;;;22.07;6.10;;;36.10;14.90;;;;;;5489754;26;20847;-70
2024/04/08 12:35:38;;;;;;;30.53;7.27;;;36.10;14.70;;;;;;5490000;26;21025;-71
2024/04/08 12:38:08;;;;;;;26.50;5.90;;;36.00;15.10;;;;;;5490691;26;20605;-71
2024/04/08 12:40:35;;;;;;;27.83;7.27;;;36.00;14.50;;;;;;5489790;26;21051;-70
2024/04/08 12:43:03;;;;;;;26.60;5.30;;;36.00;18.20;;;;;;5489241;26;21050;-70
2024/04/08 12:45:32;;;;;;;26.77;7.43;;;36.00;17.60;;;;;;5489540;26;20467;-70